createdAt,value
2022-09-07T00:00:16.062Z,99672.81
2022-09-07T00:02:43.704Z,99675.34
2022-09-07T00:05:11.373Z,99674.00
2022-09-07T00:07:39.156Z,99667.47
2022-09-07T00:10:08.274Z,99667.50
2022-09-07T00:12:35.913Z,99674.50
2022-09-07T00:15:08.144Z,99673.06
2022-09-07T00:17:37.325Z,99673.84
2022-09-07T00:20:06.711Z,99676.19
2022-09-07T00:22:34.517Z,99672.66
2022-09-07T00:25:02.208Z,99668.81
2022-09-07T00:27:29.768Z,99667.69
2022-09-07T00:29:57.474Z,99669.91
2022-09-07T00:32:25.108Z,99667.28
2022-09-07T00:34:54.096Z,99658.69
2022-09-07T00:37:21.801Z,99660.56
2022-09-07T00:39:50.490Z,99650.84
2022-09-07T00:42:19.873Z,99653.63
2022-09-07T00:45:01.761Z,99657.56
2022-09-07T00:47:33.031Z,99653.53
2022-09-07T00:50:05.478Z,99646.97
2022-09-07T00:52:34.613Z,99639.34
2022-09-07T00:55:04.849Z,99630.88
2022-09-07T00:57:32.566Z,99634.91
2022-09-07T01:00:00.933Z,99642.81
2022-09-07T01:02:28.643Z,99645.31
2022-09-07T01:05:07.567Z,99646.00
2022-09-07T01:07:37.837Z,99642.81
2022-09-07T01:10:06.679Z,99651.88
2022-09-07T01:12:34.339Z,99650.47
2022-09-07T01:15:02.413Z,99648.72
2022-09-07T01:17:40.805Z,99646.50
2022-09-07T01:20:26.417Z,99641.25
2022-09-07T01:23:32.799Z,99655.31
2022-09-07T01:26:20.079Z,99649.16
2022-09-07T01:28:51.717Z,99654.63
2022-09-07T01:31:27.394Z,99675.03
2022-09-07T01:34:02.182Z,99709.28
2022-09-07T01:36:34.836Z,99718.09
2022-09-07T01:39:04.338Z,99728.28
2022-09-07T01:41:34.934Z,99764.97
2022-09-07T01:44:07.419Z,99781.38
2022-09-07T01:46:38.318Z,99795.56
2022-09-07T01:49:11.187Z,99790.38
2022-09-07T01:51:43.813Z,99787.06
2022-09-07T01:54:14.542Z,99795.03
2022-09-07T01:56:44.639Z,99805.63
2022-09-07T01:59:18.207Z,99793.38
2022-09-07T02:01:49.013Z,99774.25
2022-09-07T02:04:21.799Z,99777.59
2022-09-07T02:06:51.299Z,99777.44
2022-09-07T02:09:23.969Z,99764.59
2022-09-07T02:11:51.607Z,99765.53
2022-09-07T02:14:24.109Z,99770.47
2022-09-07T02:16:57.089Z,99765.66
2022-09-07T02:19:27.401Z,99768.72
2022-09-07T02:22:00.861Z,99765.19
2022-09-07T02:24:31.392Z,99769.06
2022-09-07T02:27:00.329Z,99785.34
2022-09-07T02:29:31.066Z,99790.75
2022-09-07T02:31:58.962Z,99800.91
2022-09-07T02:34:26.565Z,99798.19
2022-09-07T02:36:55.037Z,99814.84
2022-09-07T02:39:22.636Z,99824.94
2022-09-07T02:41:50.381Z,99828.66
2022-09-07T02:44:20.708Z,99821.88
2022-09-07T02:47:02.536Z,99818.66
2022-09-07T02:49:43.439Z,99811.16
2022-09-07T02:52:18.231Z,99819.16
2022-09-07T02:54:54.293Z,99818.78
2022-09-07T02:57:28.373Z,99815.97
2022-09-07T03:00:05.599Z,99830.44
2022-09-07T03:02:41.468Z,99819.97
2022-09-07T03:05:13.930Z,99811.16
2022-09-07T03:07:45.677Z,99808.47
2022-09-07T03:10:14.254Z,99794.84
2022-09-07T03:12:44.714Z,99782.38
2022-09-07T03:15:12.962Z,99778.56
2022-09-07T03:17:42.365Z,99784.50
2022-09-07T03:20:10.714Z,99793.66
2022-09-07T03:22:38.461Z,99780.28
2022-09-07T03:25:07.366Z,99763.81
2022-09-07T03:27:35.021Z,99754.59
2022-09-07T03:30:02.965Z,99737.56
2022-09-07T03:32:35.341Z,99728.69
2022-09-07T03:35:05.296Z,99738.38
2022-09-07T03:37:33.125Z,99726.56
2022-09-07T03:40:00.796Z,99702.69
2022-09-07T03:42:28.664Z,99692.25
2022-09-07T03:44:56.265Z,99690.63
2022-09-07T03:47:23.920Z,99695.75
2022-09-07T03:49:51.752Z,99686.38
2022-09-07T03:52:20.751Z,99684.16
2022-09-07T03:54:48.361Z,99677.28
2022-09-07T03:57:15.941Z,99674.69
2022-09-07T03:59:43.537Z,99676.38
2022-09-07T04:02:11.115Z,99678.81
2022-09-07T04:04:38.763Z,99681.84
2022-09-07T04:07:06.825Z,99688.53
2022-09-07T04:09:35.869Z,99680.94
2022-09-07T04:12:03.985Z,99682.75
2022-09-07T04:14:31.598Z,99675.50
2022-09-07T04:16:59.275Z,99680.88
2022-09-07T04:19:27.077Z,99683.53
2022-09-07T04:21:54.678Z,99686.13
2022-09-07T04:24:24.064Z,99686.00
2022-09-07T04:26:53.365Z,99694.47
2022-09-07T04:29:20.933Z,99701.53
2022-09-07T04:31:48.546Z,99705.84
2022-09-07T04:34:16.209Z,99706.66
2022-09-07T04:36:43.770Z,99692.34
2022-09-07T04:39:12.206Z,99687.22
2022-09-07T04:41:39.853Z,99666.06
2022-09-07T04:44:08.785Z,99671.75
2022-09-07T04:46:37.676Z,99673.38
2022-09-07T04:49:06.858Z,99676.59
2022-09-07T04:51:34.806Z,99685.06
2022-09-07T04:54:03.813Z,99686.16
2022-09-07T04:56:32.444Z,99687.66
2022-09-07T04:59:00.373Z,99682.78
2022-09-07T05:01:29.858Z,99662.22
2022-09-07T05:03:57.500Z,99660.34
2022-09-07T05:06:25.141Z,99654.66
2022-09-07T05:08:54.169Z,99651.72
2022-09-07T05:11:27.954Z,99655.25
2022-09-07T05:13:56.737Z,99658.28
2022-09-07T05:16:25.504Z,99650.91
2022-09-07T05:18:56.106Z,99646.97
2022-09-07T05:21:25.282Z,99636.03
2022-09-07T05:23:54.600Z,99635.22
2022-09-07T05:26:24.374Z,99629.03
2022-09-07T05:28:52.420Z,99633.13
2022-09-07T05:31:21.929Z,99630.53
2022-09-07T05:36:40.282Z,99640.53
2022-09-07T05:39:11.290Z,99644.28
2022-09-07T05:41:39.069Z,99634.91
2022-09-07T05:46:54.930Z,99647.06
2022-09-07T05:49:22.558Z,99650.69
2022-09-07T05:51:51.506Z,99650.44
2022-09-07T05:54:19.400Z,99657.56
2022-09-07T05:56:47.142Z,99650.91
2022-09-07T05:59:14.724Z,99655.59
2022-09-07T06:01:42.539Z,99646.25
2022-09-07T06:04:10.258Z,99651.41
2022-09-07T06:06:39.473Z,99651.50
2022-09-07T06:09:12.612Z,99660.16
2022-09-07T06:11:40.192Z,99661.59
2022-09-07T06:14:07.833Z,99653.38
2022-09-07T06:16:35.755Z,99660.16
2022-09-07T06:19:06.831Z,99657.53
2022-09-07T06:21:36.682Z,99656.22
2022-09-07T06:24:04.744Z,99672.47
2022-09-07T06:26:33.831Z,99664.34
2022-09-07T06:29:03.091Z,99679.97
2022-09-07T06:31:30.837Z,99680.13
2022-09-07T06:33:58.763Z,99683.03
2022-09-07T06:36:27.873Z,99682.50
2022-09-07T06:38:56.169Z,99692.63
2022-09-07T06:44:19.833Z,99686.84
2022-09-07T06:47:03.688Z,99697.03
2022-09-07T06:49:31.938Z,99701.09
2022-09-07T06:51:59.518Z,99708.91
2022-09-07T06:57:14.769Z,99700.22
2022-09-07T06:59:43.696Z,99709.66
2022-09-07T07:02:12.944Z,99705.47
2022-09-07T07:04:41.429Z,99704.59
2022-09-07T07:07:11.585Z,99718.88
2022-09-07T07:09:39.545Z,99714.50
2022-09-07T07:12:07.395Z,99708.44
2022-09-07T07:14:38.391Z,99717.47
2022-09-07T07:17:10.243Z,99713.25
2022-09-07T07:19:37.849Z,99721.53
2022-09-07T07:22:23.938Z,99725.09
2022-09-07T07:24:53.181Z,99725.66
2022-09-07T07:27:21.434Z,99728.84
2022-09-07T07:29:49.511Z,99728.16
2022-09-07T07:32:18.457Z,99729.53
2022-09-07T07:34:46.010Z,99742.84
2022-09-07T07:37:13.757Z,99737.91
2022-09-07T07:42:29.693Z,99732.72
2022-09-07T07:47:49.960Z,99738.50
2022-09-07T07:50:34.159Z,99726.53
2022-09-07T07:55:49.772Z,99724.88
2022-09-07T07:58:18.707Z,99724.28
2022-09-07T08:00:55.207Z,99730.25
2022-09-07T08:03:26.019Z,99725.66
2022-09-07T08:05:53.732Z,99719.63
2022-09-07T08:08:24.082Z,99732.09
2022-09-07T08:10:53.208Z,99713.28
2022-09-07T08:13:21.199Z,99717.84
2022-09-07T08:15:48.936Z,99719.78
2022-09-07T08:18:17.826Z,99723.38
2022-09-07T08:20:46.628Z,99720.47
2022-09-07T08:23:15.093Z,99730.19
2022-09-07T08:25:50.231Z,99730.31
2022-09-07T08:28:17.708Z,99727.91
2022-09-07T08:30:45.148Z,99739.75
2022-09-07T08:33:12.813Z,99738.59
2022-09-07T08:35:40.411Z,99745.75
2022-09-07T08:38:09.206Z,99750.28
2022-09-07T08:40:38.048Z,99748.25
2022-09-07T08:43:13.924Z,99739.44
2022-09-07T08:45:44.917Z,99744.88
2022-09-07T08:48:15.489Z,99745.91
2022-09-07T08:50:48.534Z,99740.28
2022-09-07T08:56:24.684Z,99736.28
2022-09-07T08:58:53.782Z,99750.31
2022-09-07T09:01:37.862Z,99737.06
2022-09-07T09:04:17.066Z,99743.50
2022-09-07T09:07:08.153Z,99729.44
2022-09-07T09:09:46.956Z,99734.34
2022-09-07T09:12:21.830Z,99736.66
2022-09-07T09:15:01.189Z,99734.84
2022-09-07T09:17:30.540Z,99741.75
2022-09-07T09:20:05.474Z,99749.56
2022-09-07T09:22:32.958Z,99746.91
2022-09-07T09:25:05.675Z,99744.72
2022-09-07T09:27:34.845Z,99744.88
2022-09-07T09:46:35.195Z,99763.34
2022-09-07T09:49:48.433Z,99756.44
2022-09-07T09:52:43.427Z,99755.88
2022-09-07T10:04:02.259Z,99744.50
2022-09-07T10:06:33.438Z,99742.84
2022-09-07T10:09:02.707Z,99736.31
2022-09-07T10:14:33.385Z,99738.41
2022-09-07T10:17:02.348Z,99722.72
2022-09-07T10:19:34.609Z,99733.53
2022-09-07T10:22:05.146Z,99730.34
2022-09-07T10:24:37.022Z,99732.31
2022-09-07T10:27:20.154Z,99733.56
2022-09-07T10:29:47.772Z,99736.31
2022-09-07T10:32:23.643Z,99737.59
2022-09-07T10:35:01.810Z,99736.47
2022-09-07T10:37:41.049Z,99732.59
2022-09-07T10:40:20.796Z,99723.56
2022-09-07T10:45:50.073Z,99732.06
2022-09-07T10:48:24.606Z,99731.63
2022-09-07T10:50:54.810Z,99726.94
2022-09-07T10:53:41.312Z,99723.34
2022-09-07T10:56:11.757Z,99728.69
2022-09-07T10:59:04.878Z,99719.44
2022-09-07T11:01:44.456Z,99727.22
2022-09-07T11:04:27.625Z,99724.06
2022-09-07T11:06:59.830Z,99719.94
2022-09-07T11:09:52.811Z,99727.34
2022-09-07T11:12:27.830Z,99717.72
2022-09-07T11:15:03.378Z,99714.06
2022-09-07T11:17:52.749Z,99714.06
2022-09-07T11:20:26.778Z,99714.81
2022-09-07T11:22:59.650Z,99711.31
2022-09-07T11:25:32.912Z,99712.44
2022-09-07T11:28:02.883Z,99714.59
2022-09-07T11:30:32.455Z,99712.22
2022-09-07T11:33:04.132Z,99712.84
2022-09-07T11:35:46.494Z,99720.00
2022-09-07T11:38:19.619Z,99708.00
2022-09-07T11:40:57.946Z,99705.03
2022-09-07T11:43:29.349Z,99705.28
2022-09-07T11:46:00.954Z,99707.84
2022-09-07T11:48:32.797Z,99709.53
2022-09-07T11:51:03.248Z,99711.31
2022-09-07T11:53:32.989Z,99710.34
2022-09-07T11:56:04.811Z,99714.28
2022-09-07T11:58:49.076Z,99693.50
2022-09-07T12:01:23.878Z,99699.50
2022-09-07T12:04:06.188Z,99708.66
2022-09-07T12:07:00.501Z,99701.41
2022-09-07T12:09:40.926Z,99694.59
2022-09-07T12:12:23.125Z,99686.19
2022-09-07T12:15:02.334Z,99681.56
2022-09-07T12:17:41.248Z,99692.50
2022-09-07T12:20:14.297Z,99691.28
2022-09-07T12:22:58.890Z,99678.72
2022-09-07T12:25:29.979Z,99680.69
2022-09-07T12:27:58.918Z,99690.75
2022-09-07T12:30:57.344Z,99677.22
2022-09-07T12:33:27.858Z,99684.69
2022-09-07T12:35:58.732Z,99678.22
2022-09-07T12:39:07.986Z,99683.75
2022-09-07T12:41:47.341Z,99678.16
2022-09-07T12:44:24.932Z,99675.56
2022-09-07T12:46:56.909Z,99676.41
2022-09-07T12:49:52.521Z,99684.91
2022-09-07T12:52:45.269Z,99683.47
2022-09-07T12:55:28.303Z,99681.34
2022-09-07T12:58:05.112Z,99679.50
2022-09-07T13:00:40.512Z,99682.66
2022-09-07T13:06:19.321Z,99669.63
2022-09-07T13:09:13.417Z,99670.38
2022-09-07T13:11:41.429Z,99669.38
2022-09-07T13:14:20.490Z,99665.19
2022-09-07T13:20:08.232Z,99665.28
2022-09-07T13:22:56.134Z,99660.25
2022-09-07T13:25:45.415Z,99657.72
2022-09-07T13:28:23.588Z,99651.34
2022-09-07T13:31:01.968Z,99658.06
2022-09-07T13:33:50.318Z,99646.31
2022-09-07T13:36:25.501Z,99651.69
2022-09-07T13:38:53.823Z,99661.53
2022-09-07T13:41:23.715Z,99659.94
2022-09-07T13:43:59.207Z,99654.06
2022-09-07T13:46:37.000Z,99653.25
2022-09-07T13:49:08.999Z,99647.84
2022-09-07T13:51:40.910Z,99657.91
2022-09-07T13:54:14.203Z,99660.72
2022-09-07T13:56:48.458Z,99655.50
2022-09-07T13:59:19.869Z,99652.94
2022-09-07T14:01:48.825Z,99648.88
2022-09-07T14:04:23.497Z,99649.94
2022-09-07T14:06:51.070Z,99647.97
2022-09-07T14:09:19.922Z,99651.94
2022-09-07T14:11:49.886Z,99663.09
2022-09-07T14:14:20.192Z,99648.84
2022-09-07T14:16:50.037Z,99656.06
2022-09-07T14:19:21.729Z,99650.59
2022-09-07T14:22:00.229Z,99649.66
2022-09-07T14:24:31.452Z,99648.34
2022-09-07T14:26:59.293Z,99649.41
2022-09-07T14:29:29.887Z,99649.66
2022-09-07T14:31:58.733Z,99649.25
2022-09-07T14:34:31.354Z,99643.59
2022-09-07T14:37:01.714Z,99642.63
2022-09-07T14:39:30.712Z,99637.75
2022-09-07T14:41:59.154Z,99632.25
2022-09-07T14:44:28.408Z,99639.22
2022-09-07T14:46:57.229Z,99640.97
2022-09-07T14:49:25.165Z,99641.94
2022-09-07T14:51:55.166Z,99637.53
2022-09-07T14:54:24.195Z,99638.84
2022-09-07T14:57:06.641Z,99637.97
2022-09-07T14:59:42.668Z,99641.47
2022-09-07T15:02:33.881Z,99643.41
2022-09-07T15:05:29.175Z,99640.16
2022-09-07T15:07:59.676Z,99645.94
2022-09-07T15:10:35.107Z,99638.47
2022-09-07T15:13:04.401Z,99639.06
2022-09-07T15:15:33.588Z,99641.78
2022-09-07T15:18:07.746Z,99643.81
2022-09-07T15:20:41.047Z,99638.66
2022-09-07T15:23:14.636Z,99634.88
2022-09-07T15:25:45.450Z,99637.81
2022-09-07T15:34:09.661Z,99636.50
2022-09-07T15:36:37.204Z,99626.91
2022-09-07T15:39:07.229Z,99631.56
2022-09-07T15:41:34.841Z,99626.91
2022-09-07T15:44:02.659Z,99626.88
2022-09-07T15:46:30.199Z,99621.31
2022-09-07T15:48:58.203Z,99627.88
2022-09-07T15:54:15.687Z,99638.78
2022-09-07T15:57:47.655Z,99636.81
2022-09-07T15:59:31.535Z,99636.38
2022-09-07T16:01:59.418Z,99628.59
2022-09-07T16:04:27.117Z,99635.03
2022-09-07T16:06:54.679Z,99630.22
2022-09-07T16:09:23.474Z,99633.94
2022-09-07T16:11:51.299Z,99627.75
2022-09-07T16:14:19.044Z,99625.84
2022-09-07T16:19:35.347Z,99628.28
2022-09-07T16:22:04.029Z,99629.66
2022-09-07T16:24:34.213Z,99626.50
2022-09-07T16:27:01.762Z,99622.72
2022-09-07T16:29:29.246Z,99624.72
2022-09-07T16:34:44.889Z,99611.97
2022-09-07T16:37:12.579Z,99623.16
2022-09-07T16:39:41.971Z,99617.19
2022-09-07T16:42:09.465Z,99629.97
2022-09-07T16:44:37.033Z,99626.16
2022-09-07T16:47:04.724Z,99619.91
2022-09-07T16:49:32.241Z,99622.91
2022-09-07T16:51:59.685Z,99620.22
2022-09-07T16:54:27.293Z,99620.78
2022-09-07T16:56:56.090Z,99626.47
2022-09-07T16:59:26.600Z,99617.47
2022-09-07T17:01:54.302Z,99618.28
2022-09-07T17:04:22.182Z,99612.59
2022-09-07T17:06:51.844Z,99614.75
2022-09-07T17:09:20.445Z,99624.00
2022-09-07T17:11:47.998Z,99618.25
2022-09-07T17:14:16.766Z,99617.72
2022-09-07T17:16:44.298Z,99610.38
2022-09-07T17:22:00.650Z,99614.47
2022-09-07T17:24:28.378Z,99615.53
2022-09-07T17:26:55.955Z,99609.03
2022-09-07T17:29:24.760Z,99611.22
2022-09-07T17:34:39.673Z,99624.25
2022-09-07T17:37:08.326Z,99630.66
2022-09-07T17:39:38.518Z,99626.50
2022-09-07T17:42:06.388Z,99633.00
2022-09-07T17:44:38.055Z,99636.75
2022-09-07T17:47:06.282Z,99631.41
2022-09-07T17:49:33.801Z,99633.28
2022-09-07T17:52:01.577Z,99624.06
2022-09-07T17:54:29.094Z,99634.81
2022-09-07T17:56:56.560Z,99639.19
2022-09-07T18:02:13.901Z,99635.75
2022-09-07T18:04:41.449Z,99638.09
2022-09-07T18:07:09.043Z,99641.47
2022-09-07T18:09:36.663Z,99634.47
2022-09-07T18:12:04.817Z,99636.28
2022-09-07T18:14:32.339Z,99645.47
2022-09-07T18:17:00.381Z,99642.50
2022-09-07T18:19:29.295Z,99637.09
2022-09-07T18:21:56.955Z,99636.78
2022-09-07T18:24:25.134Z,99638.41
2022-09-07T18:26:54.270Z,99633.38
2022-09-07T18:29:29.399Z,99634.72
2022-09-07T18:31:58.970Z,99634.63
2022-09-07T18:34:28.622Z,99645.34
2022-09-07T18:36:58.310Z,99651.81
2022-09-07T18:39:25.958Z,99645.59
2022-09-07T18:41:54.881Z,99641.00
2022-09-07T18:47:17.495Z,99636.53
2022-09-07T18:49:45.305Z,99651.59
2022-09-07T18:55:02.160Z,99639.91
2022-09-07T18:57:29.935Z,99633.94
2022-09-07T18:59:57.559Z,99628.16
2022-09-07T19:02:25.709Z,99639.44
2022-09-07T19:07:43.950Z,99647.94
2022-09-07T19:10:15.010Z,99642.94
2022-09-07T19:12:45.905Z,99647.75
2022-09-07T19:15:15.837Z,99636.28
2022-09-07T19:17:44.564Z,99632.28
2022-09-07T19:20:13.384Z,99636.75
2022-09-07T19:22:42.858Z,99633.97
2022-09-07T19:25:12.686Z,99641.72
2022-09-07T19:27:40.960Z,99637.25
2022-09-07T19:30:10.453Z,99637.59
2022-09-07T19:32:38.474Z,99635.69
2022-09-07T19:35:06.559Z,99642.97
2022-09-07T19:37:34.346Z,99645.53
2022-09-07T19:40:02.968Z,99637.44
2022-09-07T19:42:32.486Z,99644.00
2022-09-07T19:45:00.783Z,99638.13
2022-09-07T19:47:28.871Z,99647.59
2022-09-07T19:49:56.486Z,99632.38
2022-09-07T19:52:24.191Z,99639.16
2022-09-07T19:54:51.699Z,99634.13
2022-09-07T19:57:19.274Z,99636.53
2022-09-07T19:59:48.872Z,99628.91
2022-09-07T20:02:16.603Z,99632.78
2022-09-07T20:04:44.129Z,99624.50
2022-09-07T20:07:12.674Z,99612.19
2022-09-07T20:09:40.305Z,99614.88
2022-09-07T20:12:08.765Z,99606.16
2022-09-07T20:14:36.324Z,99604.59
2022-09-07T20:17:05.282Z,99610.44
2022-09-07T20:19:32.814Z,99618.78
2022-09-07T20:22:00.479Z,99616.41
2022-09-07T20:24:28.360Z,99611.84
2022-09-07T20:26:55.841Z,99606.06
2022-09-07T20:29:27.830Z,99607.53
2022-09-07T20:31:56.716Z,99598.34
2022-09-07T20:34:25.828Z,99603.59
2022-09-07T20:36:53.589Z,99590.03
2022-09-07T20:39:21.783Z,99599.28
2022-09-07T20:41:49.304Z,99593.31
2022-09-07T20:44:17.105Z,99595.19
2022-09-07T20:46:44.774Z,99592.50
2022-09-07T20:49:12.406Z,99589.53
2022-09-07T20:51:41.220Z,99580.69
2022-09-07T20:54:09.038Z,99581.00
2022-09-07T20:56:36.541Z,99580.56
2022-09-07T20:59:04.535Z,99571.47
2022-09-07T21:01:32.733Z,99572.66
2022-09-07T21:04:01.583Z,99577.63
2022-09-07T21:06:29.931Z,99565.16
2022-09-07T21:08:59.045Z,99572.97
2022-09-07T21:11:28.545Z,99571.69
2022-09-07T21:13:57.059Z,99573.22
2022-09-07T21:16:25.182Z,99560.06
2022-09-07T21:18:54.097Z,99570.53
2022-09-07T21:21:21.737Z,99571.19
2022-09-07T21:23:49.274Z,99565.63
2022-09-07T21:26:22.159Z,99563.31
2022-09-07T21:28:55.182Z,99572.84
2022-09-07T21:31:22.732Z,99570.16
2022-09-07T21:33:54.759Z,99561.97
2022-09-07T21:36:22.282Z,99558.97
2022-09-07T21:38:49.946Z,99565.38
2022-09-07T21:41:19.117Z,99565.84
2022-09-07T21:43:48.142Z,99564.41
2022-09-07T21:46:17.302Z,99570.63
2022-09-07T21:48:45.635Z,99568.97
2022-09-07T21:51:13.508Z,99574.50
2022-09-07T21:53:41.292Z,99559.66
2022-09-07T21:56:11.834Z,99567.75
2022-09-07T21:58:39.772Z,99566.31
2022-09-07T22:01:14.283Z,99573.19
2022-09-07T22:03:42.182Z,99572.66
2022-09-07T22:06:10.282Z,99566.69
2022-09-07T22:08:39.895Z,99563.91
2022-09-07T22:11:09.363Z,99557.06
2022-09-07T22:13:37.375Z,99554.81
2022-09-07T22:16:05.711Z,99559.75
2022-09-07T22:18:37.104Z,99568.16
2022-09-07T22:21:06.197Z,99570.53
2022-09-07T22:23:33.954Z,99564.22
2022-09-07T22:26:01.516Z,99563.63
2022-09-07T22:28:29.796Z,99562.63
2022-09-07T22:30:57.935Z,99565.56
2022-09-07T22:33:25.544Z,99556.91
2022-09-07T22:35:54.382Z,99550.38
2022-09-07T22:38:21.950Z,99556.47
2022-09-07T22:40:49.551Z,99544.56
2022-09-07T22:43:17.075Z,99557.09
2022-09-07T22:45:44.525Z,99559.44
2022-09-07T22:48:12.094Z,99550.13
2022-09-07T22:50:39.580Z,99553.19
2022-09-07T22:53:08.462Z,99536.56
2022-09-07T22:55:39.108Z,99539.75
2022-09-07T22:58:06.640Z,99540.97
2022-09-07T23:00:36.571Z,99529.69
2022-09-07T23:03:04.901Z,99528.88
2022-09-07T23:05:36.963Z,99537.63
2022-09-07T23:08:04.992Z,99527.84
2022-09-07T23:10:35.983Z,99535.94
2022-09-07T23:13:03.741Z,99531.94
2022-09-07T23:15:31.319Z,99527.13
2022-09-07T23:17:58.781Z,99521.75
2022-09-07T23:20:26.411Z,99523.47
2022-09-07T23:22:53.981Z,99520.22
2022-09-07T23:25:21.481Z,99515.03
2022-09-07T23:27:50.292Z,99519.59
2022-09-07T23:30:17.798Z,99514.16
2022-09-07T23:32:45.314Z,99507.53
2022-09-07T23:35:16.559Z,99507.53
2022-09-07T23:37:44.282Z,99493.56
2022-09-07T23:40:12.187Z,99505.03
2022-09-07T23:42:39.685Z,99492.09
2022-09-07T23:45:09.990Z,99486.16
2022-09-07T23:47:37.472Z,99480.59
2022-09-07T23:50:05.468Z,99486.38
2022-09-07T23:52:33.353Z,99488.66
2022-09-07T23:55:00.947Z,99471.13
2022-09-07T23:57:28.414Z,99465.97
2022-09-07T23:59:55.922Z,99464.34
